Time;durP1;ratioP1;P1;durP2;ratioP2;P2;SDS_P1;SDS_P2;PMS_P1;PMS_P2;Temp;Humidity;BMP_temperature;BMP_pressure;BME280_temperature;BME280_humidity;BME280_pressure;Samples;Min_cycle;Max_cycle;Signal;HPM_P1;HPM_P2
2020/12/25 00:00:28;;;;;;;10.23;5.57;;;4.80;99.90;;;;;;5056259;23;20234;-96
2020/12/25 00:24:30;;;;;;;17.03;11.07;;;4.30;99.90;;;;;;5000737;23;20686;-94
2020/12/25 00:27:05;;;;;;;19.47;12.40;;;4.10;99.90;;;;;;4990460;28;20194;-96
2020/12/25 01:04:37;;;;;;;14.50;10.30;;;3.20;99.90;;;;;;4934820;29;20261;-96
2020/12/25 01:07:08;;;;;;;14.27;9.73;;;3.10;99.90;;;;;;4939949;28;20209;-96
2020/12/25 01:09:40;;;;;;;16.60;11.10;;;3.10;99.90;;;;;;5135558;23;20616;-94
2020/12/25 01:12:15;;;;;;;18.60;10.53;;;3.10;99.90;;;;;;4949210;29;20255;-92
2020/12/25 01:14:46;;;;;;;13.00;9.60;;;3.00;99.90;;;;;;4951275;29;20261;-92
2020/12/25 01:17:17;;;;;;;14.80;9.87;;;3.00;99.90;;;;;;4950170;29;20212;-92
2020/12/25 01:19:48;;;;;;;13.60;9.37;;;2.90;99.90;;;;;;4943242;29;20232;-94
2020/12/25 01:22:19;;;;;;;11.67;8.67;;;2.90;99.90;;;;;;4946211;29;20495;-92
2020/12/25 01:24:53;;;;;;;10.03;8.20;;;2.90;99.90;;;;;;4949482;28;20946;-94
2020/12/25 01:27:25;;;;;;;12.27;8.43;;;2.90;99.90;;;;;;4950152;29;20207;-95
2020/12/25 01:29:58;;;;;;;10.13;8.40;;;2.80;99.90;;;;;;4955647;29;20217;-92
2020/12/25 01:32:34;;;;;;;11.63;8.57;;;2.70;99.90;;;;;;4954973;28;20220;-93
2020/12/25 01:35:08;;;;;;;13.93;9.57;;;2.70;99.90;;;;;;4953957;29;20198;-95
2020/12/25 01:37:41;;;;;;;11.87;9.17;;;2.70;99.90;;;;;;4949922;29;20214;-95
2020/12/25 01:40:13;;;;;;;13.40;8.87;;;2.70;99.90;;;;;;4950290;29;20215;-91
2020/12/25 01:42:46;;;;;;;13.30;9.67;;;2.60;99.90;;;;;;4952715;29;20584;-92
2020/12/25 01:45:24;;;;;;;13.10;9.07;;;2.60;99.90;;;;;;4962734;28;20203;-93
2020/12/25 01:48:11;;;;;;;11.37;8.33;;;2.60;99.90;;;;;;4953487;29;20219;-96
2020/12/25 01:50:44;;;;;;;11.63;8.23;;;2.50;99.90;;;;;;4951419;28;20222;-94
2020/12/25 01:53:19;;;;;;;13.60;9.97;;;2.50;99.90;;;;;;4950944;29;20473;-93
2020/12/25 01:55:50;;;;;;;16.97;10.13;;;2.50;99.90;;;;;;4951713;29;20611;-95
2020/12/25 01:58:24;;;;;;;10.00;8.17;;;2.50;99.90;;;;;;4948832;29;20204;-94
2020/12/25 02:00:55;;;;;;;9.47;7.27;;;2.50;99.90;;;;;;4968211;28;20215;-95
2020/12/25 02:03:26;;;;;;;22.73;16.83;;;2.50;99.90;;;;;;4952636;28;20243;-94
2020/12/25 02:05:58;;;;;;;18.13;15.30;;;2.50;99.90;;;;;;4934905;28;20612;-94
2020/12/25 02:08:30;;;;;;;14.50;10.60;;;2.40;99.90;;;;;;4965099;29;20207;-90
2020/12/25 02:11:01;;;;;;;15.77;12.67;;;2.40;99.90;;;;;;4984837;28;20207;-95
2020/12/25 02:13:33;;;;;;;12.97;10.40;;;2.40;99.90;;;;;;4951128;28;20207;-96
2020/12/25 02:16:04;;;;;;;12.03;9.30;;;2.40;99.90;;;;;;4950370;28;20207;-96
2020/12/25 02:18:38;;;;;;;14.57;10.30;;;2.40;99.90;;;;;;4956450;29;20236;-96
2020/12/25 02:21:12;;;;;;;10.47;8.20;;;2.30;99.90;;;;;;4950434;29;20204;-94
2020/12/25 02:23:43;;;;;;;15.23;8.80;;;2.40;99.90;;;;;;4948378;29;20651;-94
2020/12/25 02:26:15;;;;;;;18.37;11.20;;;2.40;99.90;;;;;;4946706;29;20208;-92
2020/12/25 02:28:45;;;;;;;24.47;17.43;;;2.40;99.90;;;;;;4949127;29;20257;-92
2020/12/25 02:31:16;;;;;;;36.00;25.73;;;2.40;99.90;;;;;;4947042;29;20204;-92
2020/12/25 02:33:48;;;;;;;39.67;28.17;;;2.40;99.90;;;;;;4948081;29;20262;-94
2020/12/25 02:36:20;;;;;;;21.90;15.17;;;2.40;99.90;;;;;;4949455;29;20212;-92
2020/12/25 02:38:51;;;;;;;22.57;16.00;;;2.40;99.90;;;;;;4948262;29;20240;-94
2020/12/25 02:41:24;;;;;;;15.97;10.03;;;2.30;99.90;;;;;;4949445;29;20278;-91
2020/12/25 02:43:57;;;;;;;15.00;9.70;;;2.40;99.90;;;;;;4964912;23;20243;-93
2020/12/25 02:46:30;;;;;;;15.93;9.67;;;2.40;99.90;;;;;;4950755;28;20272;-96
2020/12/25 02:49:03;;;;;;;26.37;17.77;;;2.40;99.90;;;;;;4961362;28;20498;-96
2020/12/25 02:51:39;;;;;;;40.77;27.10;;;2.40;99.90;;;;;;4954514;28;20224;-95
2020/12/25 02:54:13;;;;;;;30.57;20.50;;;2.30;99.90;;;;;;4949133;29;20221;-94
2020/12/25 02:56:44;;;;;;;43.50;27.80;;;2.30;99.90;;;;;;4945225;29;20549;-91
2020/12/25 02:59:15;;;;;;;15.77;11.03;;;2.30;99.90;;;;;;4952755;29;20564;-92
2020/12/25 03:01:54;;;;;;;12.70;8.67;;;2.30;99.90;;;;;;4948438;29;20268;-92
2020/12/25 03:04:25;;;;;;;20.50;12.93;;;2.20;99.90;;;;;;4945751;28;20802;-93
2020/12/25 03:06:58;;;;;;;26.57;16.50;;;2.20;99.90;;;;;;4962446;28;20200;-94
2020/12/25 03:09:29;;;;;;;12.87;7.60;;;2.20;99.90;;;;;;4953890;29;20239;-95
2020/12/25 03:12:00;;;;;;;15.10;7.77;;;2.20;99.90;;;;;;4935567;29;20200;-96
2020/12/25 03:14:32;;;;;;;12.40;7.80;;;2.20;99.90;;;;;;4959010;28;20204;-96
2020/12/25 03:17:15;;;;;;;9.40;6.57;;;2.20;99.90;;;;;;4946465;29;20256;-95
2020/12/25 03:19:46;;;;;;;12.60;7.33;;;2.10;99.90;;;;;;4941903;28;20224;-95
2020/12/25 03:25:03;;;;;;;13.30;6.00;;;2.10;99.90;;;;;;4956822;29;20767;-94
2020/12/25 03:27:33;;;;;;;7.00;5.13;;;2.00;99.90;;;;;;4949416;29;20219;-94
2020/12/25 03:30:09;;;;;;;6.83;5.00;;;2.10;99.90;;;;;;4942291;29;20204;-96
2020/12/25 03:32:39;;;;;;;6.73;4.77;;;2.00;99.90;;;;;;4934397;29;20212;-95
2020/12/25 03:35:11;;;;;;;8.77;4.60;;;2.10;99.90;;;;;;4949372;29;20283;-95
2020/12/25 03:37:44;;;;;;;12.40;6.37;;;2.10;99.90;;;;;;4951803;28;20617;-96
2020/12/25 03:40:15;;;;;;;22.13;12.30;;;2.10;99.90;;;;;;4949233;28;20203;-96
2020/12/25 03:42:48;;;;;;;15.87;9.33;;;2.10;99.90;;;;;;4944198;29;20203;-95
2020/12/25 03:45:19;;;;;;;11.40;7.20;;;2.00;99.90;;;;;;4948783;28;20291;-92
2020/12/25 03:47:50;;;;;;;10.00;5.50;;;2.00;99.90;;;;;;4949226;28;20231;-95
2020/12/25 03:50:22;;;;;;;8.57;4.93;;;2.00;99.90;;;;;;4945915;29;20336;-95
2020/12/25 03:52:55;;;;;;;6.13;3.90;;;2.00;99.90;;;;;;4934392;29;20251;-94
2020/12/25 03:55:26;;;;;;;8.43;5.97;;;2.00;99.90;;;;;;4945894;29;20229;-93
2020/12/25 03:57:57;;;;;;;9.87;6.00;;;2.00;99.90;;;;;;4947301;29;20211;-93
2020/12/25 04:00:28;;;;;;;10.97;6.43;;;2.00;99.90;;;;;;4940073;29;20217;-93
2020/12/25 04:02:58;;;;;;;10.63;6.80;;;1.90;99.90;;;;;;4937427;28;20218;-92
2020/12/25 04:05:28;;;;;;;10.33;7.43;;;1.90;99.90;;;;;;4946185;29;20238;-95
2020/12/25 04:08:01;;;;;;;10.97;7.07;;;1.90;99.90;;;;;;4949373;29;20210;-94
2020/12/25 04:10:31;;;;;;;8.23;6.63;;;1.80;99.90;;;;;;4950754;29;20243;-94
2020/12/25 04:13:02;;;;;;;9.53;6.20;;;1.70;99.90;;;;;;4953781;28;20211;-94
2020/12/25 04:15:33;;;;;;;7.37;5.30;;;1.70;99.90;;;;;;4951962;29;20768;-93
2020/12/25 04:18:06;;;;;;;8.50;5.37;;;1.70;99.90;;;;;;4954190;28;20318;-95
2020/12/25 04:20:42;;;;;;;9.87;5.03;;;1.70;99.90;;;;;;4950593;29;20235;-96
2020/12/25 04:23:14;;;;;;;9.87;5.40;;;1.60;99.90;;;;;;4952497;29;20215;-96
2020/12/25 04:25:50;;;;;;;6.93;4.70;;;1.70;99.90;;;;;;4952907;29;20222;-95
2020/12/25 04:28:31;;;;;;;5.73;4.87;;;1.70;99.90;;;;;;4944941;29;20242;-95
2020/12/25 04:31:03;;;;;;;9.63;6.23;;;1.70;99.90;;;;;;4951687;28;20212;-95
2020/12/25 04:33:34;;;;;;;11.33;6.27;;;1.70;99.90;;;;;;4951639;29;20217;-96
2020/12/25 04:36:05;;;;;;;10.83;7.90;;;1.70;99.90;;;;;;4950141;29;20205;-96
2020/12/25 04:38:38;;;;;;;11.23;8.40;;;1.60;99.90;;;;;;4950141;29;20256;-95
2020/12/25 04:41:10;;;;;;;10.97;7.83;;;1.60;99.90;;;;;;4940419;29;20216;-96
2020/12/25 04:43:45;;;;;;;11.83;7.87;;;1.60;99.90;;;;;;4947372;29;20249;-95
2020/12/25 04:46:25;;;;;;;12.10;7.97;;;1.60;99.90;;;;;;4944144;29;20653;-94
2020/12/25 04:48:59;;;;;;;11.83;7.77;;;1.60;99.90;;;;;;4946496;29;20230;-95
2020/12/25 04:51:30;;;;;;;12.13;8.17;;;1.50;99.90;;;;;;4936639;28;20228;-95
2020/12/25 05:00:32;;;;;;;10.73;8.67;;;1.50;99.90;;;;;;4950423;28;20206;-96
2020/12/25 05:03:18;;;;;;;12.20;9.00;;;1.50;99.90;;;;;;4951026;29;20647;-96
2020/12/25 05:06:05;;;;;;;11.83;8.67;;;1.50;99.90;;;;;;4947994;29;20214;-96
2020/12/25 05:08:43;;;;;;;12.07;7.77;;;1.50;99.90;;;;;;4941742;29;20248;-95
2020/12/25 05:11:19;;;;;;;13.30;8.43;;;1.50;99.90;;;;;;4949766;29;20208;-95
2020/12/25 05:13:52;;;;;;;11.60;7.60;;;1.50;99.90;;;;;;4952842;29;20522;-96
2020/12/25 05:16:24;;;;;;;10.63;7.07;;;1.50;99.90;;;;;;4954195;29;20228;-96
2020/12/25 05:18:55;;;;;;;13.03;7.37;;;1.40;99.90;;;;;;4971091;28;20324;-96
2020/12/25 05:21:28;;;;;;;11.97;7.43;;;1.40;99.90;;;;;;4970967;28;20203;-91
2020/12/25 05:30:08;;;;;;;7.80;5.60;;;1.40;99.90;;;;;;4953974;29;20322;-95
2020/12/25 05:32:45;;;;;;;12.23;6.43;;;1.40;99.90;;;;;;4950546;29;20221;-95
2020/12/25 05:35:17;;;;;;;11.13;6.43;;;1.30;99.90;;;;;;4940534;29;20287;-94
2020/12/25 05:37:48;;;;;;;9.80;5.83;;;1.40;99.90;;;;;;4952986;29;20207;-94
2020/12/25 05:43:17;;;;;;;7.57;4.77;;;1.40;99.90;;;;;;4953863;28;20267;-94
2020/12/25 05:46:07;;;;;;;10.17;5.43;;;1.40;99.90;;;;;;4962369;28;20213;-95
2020/12/25 05:48:38;;;;;;;7.40;5.30;;;1.40;99.90;;;;;;4955090;28;20199;-96
2020/12/25 05:51:10;;;;;;;7.57;4.77;;;1.50;99.90;;;;;;4954097;28;20264;-93
2020/12/25 05:53:45;;;;;;;6.93;4.37;;;1.40;99.90;;;;;;4957537;28;20207;-93
2020/12/25 05:56:19;;;;;;;7.27;4.00;;;1.40;99.90;;;;;;4957000;28;20255;-93
2020/12/25 05:58:52;;;;;;;5.77;3.97;;;1.40;99.90;;;;;;4958523;28;20234;-94
2020/12/25 06:01:25;;;;;;;5.00;3.47;;;1.50;99.90;;;;;;4950226;28;20192;-94
2020/12/25 06:06:43;;;;;;;4.33;3.03;;;1.70;99.90;;;;;;4959171;29;20227;-95
2020/12/25 06:22:41;;;;;;;4.27;2.30;;;2.10;99.90;;;;;;4935785;29;20214;-96
2020/12/25 06:25:16;;;;;;;2.90;2.27;;;2.20;99.90;;;;;;4936474;29;20243;-95
2020/12/25 06:27:52;;;;;;;4.13;2.70;;;2.20;99.90;;;;;;4937392;29;20189;-95
2020/12/25 06:30:29;;;;;;;4.43;2.60;;;2.20;99.90;;;;;;4933713;29;20181;-95
2020/12/25 06:33:03;;;;;;;3.63;2.30;;;2.20;99.90;;;;;;4937819;29;20215;-96
2020/12/25 06:35:36;;;;;;;4.13;2.77;;;2.20;99.90;;;;;;4939036;29;20224;-95
2020/12/25 06:38:29;;;;;;;4.20;2.63;;;2.20;99.90;;;;;;4939247;29;20276;-96
2020/12/25 06:41:00;;;;;;;4.27;3.03;;;2.20;99.90;;;;;;4938865;29;20216;-92
2020/12/25 06:43:32;;;;;;;4.80;2.97;;;2.20;99.90;;;;;;4938757;28;20291;-94
2020/12/25 06:46:05;;;;;;;4.47;2.97;;;2.20;99.90;;;;;;4938523;29;20214;-94
2020/12/25 06:48:38;;;;;;;4.53;2.90;;;2.20;99.90;;;;;;4938811;29;20196;-94
2020/12/25 06:51:13;;;;;;;5.70;2.90;;;2.20;99.90;;;;;;4938499;29;20212;-93
2020/12/25 06:53:46;;;;;;;2.87;1.90;;;2.30;99.90;;;;;;4939099;29;20526;-94
2020/12/25 06:56:19;;;;;;;4.33;1.77;;;2.40;99.90;;;;;;4939013;29;20206;-94
2020/12/25 06:58:54;;;;;;;4.13;1.90;;;2.40;99.90;;;;;;4937708;29;20209;-92
2020/12/25 07:01:40;;;;;;;4.37;2.27;;;2.50;99.90;;;;;;4936524;29;20217;-93
2020/12/25 07:04:35;;;;;;;3.43;1.77;;;2.70;99.90;;;;;;4933989;29;20245;-95
2020/12/25 07:07:14;;;;;;;3.20;2.30;;;2.70;99.90;;;;;;4933998;29;20248;-95
2020/12/25 07:09:48;;;;;;;2.90;1.90;;;2.80;99.90;;;;;;4933514;29;20208;-95
2020/12/25 07:12:23;;;;;;;3.00;1.90;;;2.80;99.90;;;;;;4933955;29;20213;-95
2020/12/25 07:14:54;;;;;;;3.53;2.13;;;2.80;99.90;;;;;;4933296;29;20327;-96
2020/12/25 07:20:03;;;;;;;3.90;2.10;;;2.80;99.90;;;;;;4951866;29;20473;-95
2020/12/25 07:22:34;;;;;;;2.80;2.20;;;2.80;99.90;;;;;;4951064;29;20212;-95
2020/12/25 07:25:13;;;;;;;3.53;2.50;;;2.80;99.90;;;;;;4951179;28;20231;-94
2020/12/25 07:27:45;;;;;;;3.37;2.27;;;2.80;99.90;;;;;;4953036;28;20201;-94
2020/12/25 07:30:19;;;;;;;4.13;2.67;;;2.70;99.90;;;;;;4949748;29;20219;-95
2020/12/25 07:32:55;;;;;;;4.50;2.40;;;2.70;99.90;;;;;;4955492;29;20357;-95
2020/12/25 07:35:27;;;;;;;3.90;2.20;;;2.70;99.90;;;;;;4956498;28;20215;-96
2020/12/25 07:37:59;;;;;;;3.93;2.50;;;2.60;99.90;;;;;;4970007;28;20230;-96
2020/12/25 07:40:31;;;;;;;3.87;2.50;;;2.60;99.90;;;;;;4965877;28;20203;-96
2020/12/25 07:43:05;;;;;;;6.33;3.13;;;2.60;99.90;;;;;;4962367;29;20207;-96
2020/12/25 07:45:39;;;;;;;4.37;3.13;;;2.60;99.90;;;;;;4960667;29;20255;-96
2020/12/25 07:48:12;;;;;;;5.07;2.87;;;2.50;99.90;;;;;;4971178;28;20231;-96
2020/12/25 07:50:44;;;;;;;6.17;3.53;;;2.50;99.90;;;;;;4960927;28;20208;-96
2020/12/25 07:53:17;;;;;;;6.37;3.23;;;2.50;99.90;;;;;;4955235;29;20216;-96
2020/12/25 07:55:50;;;;;;;5.47;2.97;;;2.50;99.90;;;;;;4970103;29;20214;-96
2020/12/25 07:58:25;;;;;;;4.83;2.90;;;2.50;99.90;;;;;;4952771;28;20285;-96
2020/12/25 08:01:00;;;;;;;5.07;3.27;;;2.50;99.90;;;;;;4965877;28;20285;-96
2020/12/25 08:03:38;;;;;;;5.40;4.03;;;2.60;99.90;;;;;;4960953;28;20310;-96
2020/12/25 08:06:39;;;;;;;5.93;4.57;;;2.60;99.90;;;;;;4961594;29;20212;-95
2020/12/25 08:12:31;;;;;;;3.60;2.93;;;2.60;99.90;;;;;;4964856;29;20199;-96
2020/12/25 08:15:02;;;;;;;5.90;3.13;;;2.50;99.90;;;;;;4976271;28;20215;-95
2020/12/25 08:17:34;;;;;;;3.90;2.73;;;2.50;99.90;;;;;;4963050;28;20208;-96
2020/12/25 08:20:07;;;;;;;4.93;3.17;;;2.40;99.90;;;;;;4962688;28;20365;-96
2020/12/25 08:22:47;;;;;;;4.67;2.80;;;2.40;99.90;;;;;;4958871;29;20207;-96
2020/12/25 08:25:24;;;;;;;4.80;2.47;;;2.30;99.90;;;;;;4954533;29;20556;-96
2020/12/25 08:27:58;;;;;;;4.80;3.03;;;2.30;99.90;;;;;;4951356;29;20217;-96
2020/12/25 08:30:35;;;;;;;4.30;2.97;;;2.20;99.90;;;;;;4962383;28;20252;-96
2020/12/25 08:33:29;;;;;;;3.43;2.20;;;2.20;99.90;;;;;;4959151;28;20272;-95
2020/12/25 08:36:16;;;;;;;4.10;2.40;;;2.20;99.90;;;;;;4950979;29;20980;-93
2020/12/25 08:39:07;;;;;;;6.03;2.80;;;2.20;99.90;;;;;;4957794;29;20207;-95
2020/12/25 08:41:43;;;;;;;5.23;2.37;;;2.20;99.90;;;;;;4956205;28;20215;-94
2020/12/25 09:11:17;;;;;;;3.03;2.33;;;2.80;99.90;;;;;;4928833;29;20217;-93
2020/12/25 09:13:57;;;;;;;3.10;2.40;;;2.80;99.90;;;;;;4932029;29;20205;-93
2020/12/25 09:16:56;;;;;;;4.20;2.90;;;2.70;99.90;;;;;;4928781;29;20211;-94
2020/12/25 09:19:28;;;;;;;5.03;3.20;;;2.70;99.90;;;;;;4932480;29;20267;-93
2020/12/25 09:21:59;;;;;;;6.23;3.30;;;2.60;99.90;;;;;;4945718;29;20212;-95
2020/12/25 09:24:30;;;;;;;7.03;3.17;;;2.60;99.90;;;;;;4917914;29;20257;-94
2020/12/25 09:27:05;;;;;;;6.80;3.47;;;2.50;99.90;;;;;;4927836;29;20211;-94
2020/12/25 09:29:36;;;;;;;5.40;3.53;;;2.50;99.90;;;;;;4934315;29;20244;-95
2020/12/25 09:32:07;;;;;;;5.80;3.53;;;2.40;99.90;;;;;;4931720;29;20237;-95
2020/12/25 09:34:39;;;;;;;4.70;3.67;;;2.40;99.90;;;;;;4932323;28;20196;-95
2020/12/25 09:37:14;;;;;;;5.73;3.77;;;2.40;99.90;;;;;;4940629;29;20235;-95
2020/12/25 09:39:53;;;;;;;7.47;5.07;;;2.40;99.90;;;;;;4949805;29;20192;-95
2020/12/25 09:42:26;;;;;;;8.30;5.40;;;2.50;99.90;;;;;;4931125;29;20562;-94
2020/12/25 09:44:57;;;;;;;10.17;5.93;;;2.50;99.90;;;;;;4930617;29;20236;-94
2020/12/25 09:47:28;;;;;;;10.53;6.70;;;2.40;99.90;;;;;;4932226;29;20233;-94
2020/12/25 09:49:58;;;;;;;8.10;6.47;;;2.40;99.90;;;;;;4930772;29;20205;-95
2020/12/25 09:52:31;;;;;;;10.27;6.80;;;2.30;99.90;;;;;;4941796;29;20430;-95
2020/12/25 09:55:07;;;;;;;9.33;7.07;;;2.30;99.90;;;;;;4936280;29;20927;-94
2020/12/25 09:57:49;;;;;;;10.83;7.10;;;2.20;99.90;;;;;;4932219;29;20301;-95
2020/12/25 10:00:25;;;;;;;15.17;9.03;;;2.20;99.90;;;;;;4931273;29;20902;-95
2020/12/25 10:02:56;;;;;;;16.13;9.97;;;2.10;99.90;;;;;;4932251;29;20212;-94
2020/12/25 10:05:27;;;;;;;12.90;8.63;;;2.10;99.90;;;;;;4931885;29;20243;-95
2020/12/25 10:07:58;;;;;;;11.13;7.27;;;2.10;99.90;;;;;;4931115;29;20225;-96
2020/12/25 10:10:29;;;;;;;9.23;6.27;;;2.10;99.90;;;;;;4930604;29;20216;-95
2020/12/25 10:13:18;;;;;;;11.43;6.27;;;2.20;99.90;;;;;;4932416;29;20208;-96
2020/12/25 10:15:53;;;;;;;10.40;6.40;;;2.20;99.90;;;;;;4928712;29;20229;-95
2020/12/25 10:18:24;;;;;;;11.13;6.63;;;2.30;99.90;;;;;;4931563;29;20204;-95
2020/12/25 10:20:58;;;;;;;9.00;5.87;;;2.40;99.90;;;;;;4931005;29;20265;-95
2020/12/25 10:23:31;;;;;;;11.20;7.00;;;2.40;99.90;;;;;;4930788;29;20221;-94
2020/12/25 10:26:03;;;;;;;8.43;4.97;;;2.50;99.90;;;;;;4930025;29;20259;-93
2020/12/25 10:28:38;;;;;;;7.33;5.07;;;2.60;99.90;;;;;;4930396;29;20203;-95
2020/12/25 10:31:16;;;;;;;7.93;5.47;;;2.60;99.90;;;;;;4930542;29;20238;-94
2020/12/25 10:33:49;;;;;;;9.67;5.13;;;2.70;99.90;;;;;;4929798;29;20211;-94
2020/12/25 10:36:26;;;;;;;9.43;5.73;;;2.70;99.90;;;;;;4929870;29;20208;-95
2020/12/25 10:38:57;;;;;;;9.37;5.47;;;2.70;99.90;;;;;;4930668;29;20212;-95
2020/12/25 10:41:33;;;;;;;11.27;5.63;;;2.70;99.90;;;;;;4930352;29;20220;-94
2020/12/25 10:44:07;;;;;;;8.90;5.93;;;2.70;99.90;;;;;;4930625;29;20216;-95
2020/12/25 10:46:39;;;;;;;8.70;5.97;;;2.70;99.90;;;;;;4929994;29;20234;-94
2020/12/25 10:49:11;;;;;;;7.00;4.80;;;2.70;99.90;;;;;;4930852;29;20310;-95
2020/12/25 10:51:47;;;;;;;8.37;5.13;;;2.80;99.90;;;;;;4924389;29;20216;-94
2020/12/25 10:54:18;;;;;;;7.07;4.40;;;2.80;99.90;;;;;;4910405;29;20250;-94
2020/12/25 10:56:49;;;;;;;4.83;3.40;;;2.70;99.90;;;;;;4926558;29;20547;-95
2020/12/25 10:59:26;;;;;;;5.13;3.30;;;3.00;99.90;;;;;;4930335;29;20216;-95
2020/12/25 11:01:57;;;;;;;6.43;3.40;;;3.00;99.90;;;;;;4926129;29;20216;-94
2020/12/25 11:04:28;;;;;;;6.73;3.13;;;3.20;99.90;;;;;;4930990;29;20220;-94
2020/12/25 11:07:01;;;;;;;5.70;2.87;;;3.20;99.90;;;;;;4929564;29;20212;-94
2020/12/25 11:09:31;;;;;;;4.60;2.83;;;3.20;99.90;;;;;;4930603;29;20251;-93
2020/12/25 11:12:02;;;;;;;3.03;2.47;;;3.20;99.90;;;;;;4934351;29;20211;-94
2020/12/25 11:14:34;;;;;;;4.07;2.67;;;3.20;99.90;;;;;;4935642;29;20220;-94
2020/12/25 11:17:06;;;;;;;4.30;2.83;;;3.10;99.90;;;;;;4928756;29;20268;-94
2020/12/25 11:19:37;;;;;;;8.27;2.97;;;3.20;99.90;;;;;;4942189;28;20267;-96
2020/12/25 11:22:11;;;;;;;7.90;3.70;;;3.20;99.90;;;;;;4936960;29;20216;-93
2020/12/25 11:24:43;;;;;;;6.67;4.00;;;3.20;99.90;;;;;;4934160;29;20295;-93
2020/12/25 11:27:15;;;;;;;5.37;3.50;;;3.20;99.90;;;;;;4934109;29;20248;-93
2020/12/25 11:29:46;;;;;;;5.73;3.30;;;3.20;99.90;;;;;;4944101;29;20211;-93
2020/12/25 11:32:17;;;;;;;5.50;3.47;;;3.20;99.90;;;;;;4932758;29;20659;-94
2020/12/25 11:34:50;;;;;;;4.53;3.40;;;3.10;99.90;;;;;;4934481;29;20217;-94
2020/12/25 11:37:23;;;;;;;4.93;3.33;;;3.10;99.90;;;;;;4933126;29;20227;-95
2020/12/25 11:39:55;;;;;;;5.20;3.17;;;3.10;99.90;;;;;;4933888;29;20537;-94
2020/12/25 11:42:25;;;;;;;4.43;3.40;;;3.10;99.90;;;;;;4934886;29;20253;-93
2020/12/25 11:45:02;;;;;;;6.10;3.10;;;3.10;99.90;;;;;;4935336;29;20247;-94
2020/12/25 11:47:35;;;;;;;4.93;3.27;;;3.10;99.90;;;;;;4935283;29;20233;-95
2020/12/25 11:50:06;;;;;;;5.37;3.47;;;3.00;99.90;;;;;;4935851;29;20209;-94
2020/12/25 11:52:40;;;;;;;3.40;2.67;;;3.00;99.90;;;;;;4936197;29;20203;-95
2020/12/25 11:55:10;;;;;;;4.77;3.20;;;3.00;99.90;;;;;;4940942;29;20197;-94
2020/12/25 11:57:43;;;;;;;5.40;3.20;;;3.00;99.90;;;;;;4940483;29;20215;-93
2020/12/25 12:00:15;;;;;;;3.27;2.77;;;3.10;99.90;;;;;;4941973;29;20236;-94
2020/12/25 12:02:46;;;;;;;4.70;3.23;;;3.10;99.90;;;;;;4943606;29;20276;-95
2020/12/25 12:05:16;;;;;;;3.97;2.97;;;3.00;99.90;;;;;;4942329;29;20235;-94
2020/12/25 12:07:46;;;;;;;4.77;2.63;;;3.00;99.90;;;;;;4942563;29;20256;-94
2020/12/25 12:10:17;;;;;;;3.17;2.40;;;3.00;99.90;;;;;;4942314;29;20212;-93
2020/12/25 12:12:48;;;;;;;5.27;2.77;;;2.90;99.90;;;;;;4937449;29;20253;-94
2020/12/25 12:15:20;;;;;;;4.80;2.53;;;2.90;99.90;;;;;;4947213;29;20215;-94
2020/12/25 12:17:51;;;;;;;4.43;2.60;;;2.90;99.90;;;;;;4940928;29;20212;-94
2020/12/25 12:20:22;;;;;;;7.13;2.90;;;2.90;99.90;;;;;;4934016;29;20225;-93
2020/12/25 12:22:53;;;;;;;4.50;2.20;;;2.90;99.90;;;;;;4933656;29;20216;-93
2020/12/25 12:25:24;;;;;;;4.97;2.43;;;2.90;99.90;;;;;;4933175;28;20239;-94
2020/12/25 12:27:58;;;;;;;3.70;2.20;;;2.90;99.90;;;;;;4933118;29;20209;-94
2020/12/25 12:30:34;;;;;;;4.13;2.07;;;2.90;99.90;;;;;;4930930;29;20193;-94
2020/12/25 12:33:04;;;;;;;3.33;2.03;;;3.10;99.90;;;;;;4933557;29;20211;-92
2020/12/25 12:35:35;;;;;;;3.07;1.93;;;3.20;99.90;;;;;;4933078;29;20209;-95
2020/12/25 12:38:05;;;;;;;3.13;1.80;;;3.20;99.90;;;;;;4933176;29;20209;-94
2020/12/25 12:40:37;;;;;;;3.07;1.50;;;3.20;99.90;;;;;;4930103;29;20212;-94
2020/12/25 12:43:08;;;;;;;2.23;1.43;;;3.30;99.90;;;;;;4931459;29;20715;-93
2020/12/25 12:45:43;;;;;;;1.80;1.10;;;3.40;99.90;;;;;;4931836;29;20228;-95
2020/12/25 12:48:14;;;;;;;2.87;1.40;;;3.60;99.90;;;;;;4930919;29;20212;-93
2020/12/25 12:50:45;;;;;;;1.90;1.27;;;3.70;99.90;;;;;;4931524;29;20201;-94
2020/12/25 12:53:16;;;;;;;1.37;1.00;;;3.70;99.90;;;;;;4933260;29;20205;-95
2020/12/25 12:55:48;;;;;;;3.00;1.30;;;3.70;99.90;;;;;;4932314;29;20241;-94
2020/12/25 12:58:22;;;;;;;2.73;1.77;;;3.70;99.90;;;;;;4932535;29;20208;-93
2020/12/25 13:00:59;;;;;;;5.17;2.93;;;3.70;99.90;;;;;;4923032;29;20287;-93
2020/12/25 13:03:29;;;;;;;5.93;2.50;;;3.80;99.90;;;;;;4931516;29;20308;-95
2020/12/25 13:06:01;;;;;;;4.37;2.17;;;3.70;99.90;;;;;;4930807;29;20233;-94
2020/12/25 13:08:32;;;;;;;2.93;2.00;;;3.70;99.90;;;;;;4931220;29;20213;-95
2020/12/25 13:11:02;;;;;;;3.30;1.97;;;3.70;99.90;;;;;;4933112;29;20217;-94
2020/12/25 13:13:34;;;;;;;4.70;2.43;;;3.70;99.90;;;;;;4933217;29;20534;-95
2020/12/25 13:16:09;;;;;;;5.70;2.90;;;3.70;99.90;;;;;;4931767;29;20220;-95
2020/12/25 13:18:40;;;;;;;5.57;3.27;;;3.70;99.90;;;;;;4932442;29;20213;-95
2020/12/25 13:21:11;;;;;;;5.63;3.50;;;3.70;99.90;;;;;;4932026;29;20215;-95
2020/12/25 13:23:45;;;;;;;4.93;3.40;;;3.70;99.90;;;;;;4939661;29;20231;-94
2020/12/25 13:26:16;;;;;;;3.80;2.80;;;3.80;99.90;;;;;;4951437;29;20227;-93
2020/12/25 13:28:50;;;;;;;3.90;2.53;;;3.80;99.90;;;;;;4951599;29;20633;-94
2020/12/25 13:31:24;;;;;;;4.83;2.23;;;3.80;99.90;;;;;;4935245;29;20252;-94
2020/12/25 13:33:55;;;;;;;2.33;1.50;;;3.90;99.90;;;;;;4933026;29;20212;-93
2020/12/25 13:36:26;;;;;;;2.70;1.60;;;3.90;99.90;;;;;;4931733;29;20249;-95
2020/12/25 13:38:57;;;;;;;2.67;1.73;;;3.90;99.90;;;;;;4932677;29;20675;-92
2020/12/25 13:41:28;;;;;;;6.00;4.23;;;4.00;99.90;;;;;;4931360;29;20217;-92
2020/12/25 13:43:59;;;;;;;5.73;3.60;;;4.10;99.90;;;;;;4932013;29;20217;-92
2020/12/25 13:46:32;;;;;;;5.60;3.97;;;4.10;99.90;;;;;;4930977;29;20665;-93
2020/12/25 13:49:04;;;;;;;4.60;3.20;;;4.10;99.90;;;;;;4931438;29;20212;-93
2020/12/25 13:51:34;;;;;;;3.50;3.17;;;4.10;99.90;;;;;;4931664;29;20245;-95
2020/12/25 13:54:06;;;;;;;4.50;3.50;;;4.10;99.90;;;;;;4930743;29;20638;-95
2020/12/25 13:56:37;;;;;;;6.43;3.20;;;4.10;99.90;;;;;;4930561;29;20208;-94
2020/12/25 13:59:09;;;;;;;5.20;2.83;;;4.10;99.90;;;;;;4931818;29;20209;-94
2020/12/25 14:01:42;;;;;;;4.93;2.77;;;4.20;99.90;;;;;;4915625;29;20205;-94
2020/12/25 14:04:13;;;;;;;3.20;2.13;;;4.20;99.90;;;;;;4931400;29;20576;-94
2020/12/25 14:06:44;;;;;;;2.73;1.93;;;4.20;99.90;;;;;;4922078;29;20660;-93
2020/12/25 14:09:15;;;;;;;3.20;2.23;;;4.30;99.90;;;;;;4931534;29;20213;-93
2020/12/25 14:11:46;;;;;;;2.63;1.30;;;4.30;99.90;;;;;;4931851;28;20213;-93
2020/12/25 14:14:17;;;;;;;2.13;1.40;;;4.40;99.90;;;;;;4931317;29;20249;-94
2020/12/25 14:16:54;;;;;;;2.63;2.17;;;4.40;99.90;;;;;;4930065;29;20216;-94
2020/12/25 14:19:26;;;;;;;4.47;3.00;;;4.40;99.90;;;;;;4931689;29;20216;-94
2020/12/25 14:21:56;;;;;;;5.53;4.53;;;4.50;99.90;;;;;;4930878;28;20201;-94
2020/12/25 14:24:29;;;;;;;6.77;4.57;;;4.40;99.90;;;;;;4931187;29;20261;-95
2020/12/25 14:27:00;;;;;;;6.67;4.20;;;4.40;99.90;;;;;;4931091;29;20244;-94
2020/12/25 14:29:31;;;;;;;7.43;5.57;;;4.40;99.90;;;;;;4931194;29;20197;-93
2020/12/25 14:32:03;;;;;;;6.77;4.63;;;4.40;99.90;;;;;;4929428;29;20209;-93
2020/12/25 14:34:35;;;;;;;8.53;5.30;;;4.50;99.90;;;;;;4915257;29;20212;-94
2020/12/25 14:37:09;;;;;;;6.70;5.13;;;4.40;99.90;;;;;;4930491;29;20260;-95
2020/12/25 14:39:40;;;;;;;7.63;4.67;;;4.40;99.90;;;;;;4931611;29;20216;-94
2020/12/25 14:42:14;;;;;;;6.13;5.07;;;4.50;99.90;;;;;;4921771;29;20218;-94
2020/12/25 14:44:46;;;;;;;5.13;4.37;;;4.50;99.90;;;;;;4911302;29;20197;-93
2020/12/25 14:47:18;;;;;;;8.27;4.57;;;4.40;99.90;;;;;;4911427;29;20217;-94
2020/12/25 14:49:51;;;;;;;7.00;4.90;;;4.40;99.90;;;;;;4915063;29;20593;-94
2020/12/25 14:52:24;;;;;;;6.03;4.70;;;4.40;99.90;;;;;;4926877;29;20234;-95
2020/12/25 14:54:56;;;;;;;7.00;3.87;;;4.40;99.90;;;;;;4926009;29;20224;-95
2020/12/25 14:57:26;;;;;;;6.97;4.87;;;4.40;99.90;;;;;;4926391;29;20205;-94
2020/12/25 14:59:59;;;;;;;6.43;4.73;;;4.40;99.90;;;;;;4931398;29;20205;-94
2020/12/25 15:02:32;;;;;;;5.83;4.17;;;4.40;99.90;;;;;;4930210;29;20216;-94
2020/12/25 15:05:05;;;;;;;6.80;4.43;;;4.40;99.90;;;;;;4930686;28;20250;-93
2020/12/25 15:07:35;;;;;;;7.13;4.63;;;4.30;99.90;;;;;;4930752;29;20209;-93
2020/12/25 15:10:07;;;;;;;5.63;4.50;;;4.40;99.90;;;;;;4930667;29;20260;-93
2020/12/25 15:12:37;;;;;;;6.90;4.77;;;4.40;99.90;;;;;;4931094;29;20233;-93
2020/12/25 15:15:08;;;;;;;6.77;4.50;;;4.30;99.90;;;;;;4930667;28;20213;-94
2020/12/25 15:17:40;;;;;;;6.27;3.93;;;4.30;99.90;;;;;;4929520;29;20213;-94
2020/12/25 15:20:12;;;;;;;7.70;4.20;;;4.30;99.90;;;;;;4933256;29;20205;-93
2020/12/25 15:22:43;;;;;;;5.90;4.20;;;4.30;99.90;;;;;;4930490;29;20244;-93
2020/12/25 15:25:16;;;;;;;6.47;3.80;;;4.30;99.90;;;;;;4933147;29;20221;-94
2020/12/25 15:27:47;;;;;;;5.17;3.60;;;4.30;99.90;;;;;;4910969;29;20214;-93